Menifee, California
Current Conditions -  °F | °C
As of 2:35 PM on Monday 26 Jan 2015 (Local Time) from KF70 Reporting Station
Overcast Overcast  
Wind Chill: 57°   Ceiling: 2900
Heat Index: 57°   Visibility: 5mi
Dew Point: 54°   Wind: 9mph
Humidity: 88%   Direction: 190°S
Pressure: 30.07"   Gusts: NA
Location:  33.66°N, 117.18°W
Report Text: KF70 262235Z AUTO 19008KT 5SM SCT020 BKN029 OVC060 14/12 A3007 RMK AO1 P0006
Loading
Personal Weather Stations






























Interactive Weather Map New forecast layout! Learn more

10-Day Weather Forecast

Advertisements
Track Severe Weather on mobile